Timeline UpdatesTrip UpdatesNews PostsPvt Posts♥♥Travel TipsAdmin PostsConv PostsFollowed PostsChat RequestsBlog PostsPNR Posts

Disclaimer
Search
 
 
Fri Nov 28, 2014 05:44:55 ISTHomeTrainsΣChainsAtlasPNRForumGalleryNewsFAQTripsMembersLoginFeedback
No Recent News for this Train
Other Trains in the News **new
Latest...
Diverted via Asansol-Jhajha-Patna-Mughalsarai from 15/10/14-20/10/14 #1245502.
Wed Oct 15, 2014 (09:42PM)
⇐ Return Journey: Train# 13010

13009/Doon Express

Time-Table HAS CHANGED.
Yesterday (10:56PM)
Change Departure Station:
Change Arrival Station:
Post a Train Travel TipPost a Train Travel Tip **new
Post a Comment/Question/Picture/VideoPost a Comment/Question/Picture/Video
Inaugural Run
Thu Oct 01, 1925
Pantry/Catering
✕ NO Pantry Car
✓ Catering Avbl
RSA - Rake Sharing
No rake sharing. Only 1 sleeper coach (S12) goes to KTW after getting detached at NBD.
Rake/Coach Composition
LOCO-SLR-GS-S1-S2-S3-S4-S5-S6-A1-B1-B2-B3-S7-S8-S9-S10-S11-S12-GS-GS-SLR
Loco
HWH-MGS: HWH WAP#4 MGS-DDN: LKO WDM#3A/3D
News    PNR    Forum    Time-Table    Availability    Fare Chart    Map    Arr/Dep History    Trips    Gallery    ΣChains    X/O    Timeline    
Travel Time: 3h 41m    7 halts    Distance: 213 km    Avg Speed: 57 km/hr
Type: Mail/Express
Zone: ER/Eastern
Departs @ 20:30
Platform# 8
SMTWTFS
Kolkata Howrah Junction/HWH 
Arrives @ 00:11 +1 night
Platform# ???
SMTWTFS
Asansol Junction/ASN 

7 halts. 56 intermediate Stations between Kolkata Howrah Junction and Asansol Junction

Show ALL intermediate Stations  Show Old Time-Table

#TrkCodeStation NameX/OArrivesAvgDepartsAvgHaltPFDay#KmSpeedElevZoneAddress
1/==/HWHKolkata Howrah Junction (23)»  -20:30-810.04010mERHowrah 711101, West Bengal
2/==/SRPSerampore (4)X  21:00 20:59-21:08 21:00-8 1m3119.54011mERdist - hooghly, West Bengal
3/==/CGRChandan Nagar (3)X  21:21 21:20-21:23 21:21-2 1m3132.72716mERDist -HOOGHLY - 712136, West Bengal
4/==/BDCBandel Junction (7)X  21:36-21:41-5m1139.57514mERdist - HOOGHLY, West Bengal
5/==/BWNBarddhaman Junction (8)  22:35-22:40-5m21106.78234mERDist - Barddhaman, West Bengal
6/==/PANPanagarh (4)X  23:16 23:15-23:18 23:16-2 1m--1154.76270mERKaksa, West Bengal
7/==/DGRDurgapur (5)  23:31-23:33-2m31170.37771mERDurgapur, West Bengal
8/==/RNGRaniGanj (4)  23:53 23:52-23:55 23:53-2 1m--1194.66092mERRaniganj, West Bengal
9/==/ASNAsansol Junction (7)•XO  00:11-00:16-5m--2212.761113mERDist - Bardhaman, West Bengal
10/==/BRRBarakar (2)  00:34 00:33-00:36 00:34-2 1m--2229.948129mERDist. Bardhaman, West Bengal
11/==/DHNDhanbad Junction (9)X  01:25-01:30-5m32270.971235mECR2319801. Div. HQ ECR, Jharkhand
12/==/GMONetaji SC Bose Gomoh Junction (6)X  01:55-02:05-10m32300.777239mECRGomoh, Jharkhand
13/==/PNMEParasnath (5)X  02:19-02:24-5m--2318.890282mECRGiridih 06532-233419, Jharkhand
14/==/HZDHazaribagh Road (4)X  02:42-02:44-2m--2345.973330mECRHazaribagh, Jharkhand
15/==/PSBParsabad (4)  03:02-03:04-2m--2367.888346mECRNational Highway 2, Jharkhand
16/==/KQRKoderma Junction (7)  03:22-03:25-3m--2394.164399mECR06534-222410 Koderma, Jharkhand
17/==/PRPPaharpurX  04:06-04:08-2m--2438.267150mECRGaya, Bihar
18/==/TKNTankuppaX  04:19-04:21-2m--2450.535127mECRState Highway 70, Bihar
19/==/GAYAGaya Junction (9)X  04:55-05:00-5m12470.668117mECR0631-2220283, Bihar
20/==/GRRUGuraruX  05:19-05:21-2m--2492.081114mECRGuraru, Bihar
21/==/RFJRafiGanj (4)X  05:33-05:35-2m--2508.272102mECRRafiganj, Bihar
22/==/JHNJakhimX  05:44-05:46-2m--2519.06693mECRbel Rd, Bihar
23/==/PESPhesarX  05:56-05:58-2m--2530.167104mECRpheshar, Bihar
24/==/AUBRAnugraha Narayan Road (4)X  06:06-06:08-2m22539.073104mECR06186-285271, Bihar
25/==/SEBSon Nagar Junction (4)  06:17-06:19-2m--2549.931110mECRBarun, Bihar
26/==/DOSDehri On Sone (6)X  06:30-06:32-2m--2555.681114mECRRohtas(06184-253154), Bihar
27/==/SSMSasaram Junction (4)  06:45-06:47-2m22573.389111mECR06184-222051, Bihar
28/==/KTQKudra (2)  07:04-07:06-2m--2598.58492mECRKudra, Bihar
29/==/BBUBhabua Road (4)X  07:22-07:24-2m--2620.87780mECR06187-222222, Bihar
30/==/DGODurgautiX  07:31-07:33-2m--2629.85078mECRDistt Kaimur, Bihar
31/==/KMSKaramnasa (4)  07:47-07:49-2m--2641.48278mECRNational Highway 2, Uttar Pradesh
32/==/SYJSaidraja (5)O  07:55-07:57-2m--2649.66380mECRSaiyedraja, Uttar Pradesh
33/==/CDMRChandauli Majhwar (5)XO  08:05-08:07-2m--2658.01579mECRNational Highway 2, Uttar Pradesh
34/==/MGSMughal Sarai Junction (8)X  09:17-09:37-20m--2675.42683mECRDistt: Chandauli Pin 232101, Uttar Pradesh
35/==/KEIKashi (3)X  10:02-10:03-1m12686.41985mNRVaranasi, Uttar Pradesh
36/==%BSBVaranasi Junction (9)X  10:20-10:30-10m42691.76282mNRVaranasi 221002, Uttar Pradesh
37/==/BTPBabatpur (2)  10:48-10:49-1m--2710.26284mNRSatomahua-Mangari Rd, Uttar Pradesh
38/==/KSFKhalispur (2)  10:58-10:59-1m--2719.66283mNRPhulpur, Uttar Pradesh
39/==/JLLJalalGanj (2)X  11:10-11:11-1m--2730.94887mNRJalalganj Railway Station, Uttar Pradesh
40/==/ZBDZafarabad Junction (4)  11:26-11:27-1m--2742.94383mNRNational Highway 56, Uttar Pradesh
41|--|JNUJaunpur Junction (5)  11:36-11:38-2m12749.46783mNRJaunpur, Uttar Pradesh
42|--|SHGShahganj Junction (4)X  12:03 12:08-12:07 12:13-4 5m--2782.72990mNRShahganj, Uttar Pradesh
43|--|BWIBilwai (1)12:36-12:37-1m12793.63291mNRBilwai, Uttar Pradesh
44|--|MLPRMalipur (2)  13:03-13:04-1m--2807.76492mNRMalipur, Uttar Pradesh
45|--|ABPAkbarpur Junction (2)  13:22-13:24-2m--2826.87892mNRAkbarpur, Uttar Pradesh
46|--|GGJGoshainGanj (3)  13:41-13:42-1m--2849.06698mNRGoshainganj, Uttar Pradesh
47|--|AYAyodhya Junction (3)  14:11-14:12-1m12880.72798mNRAyodhya, Uttar Pradesh
48|--|ACNDAcharya Narendra Dev Nagar  14:22-14:23-1m--2885.26104mNRFaizabad, Uttar Pradesh
49|--|FDFaizabad Junction (5)X  14:44-14:49 14:53-5 9m12887.457104mNRFaizabad, Uttar Pradesh
50|--|SLWSohwal  15:09-15:10-1m--2902.762107mNRFaizabad Rd, Uttar Pradesh
51|--|RDLRudauli (2)  15:32-15:33-1m--2925.558112mNRRudauli, Uttar Pradesh
52|--|DYDDaryabadX  15:57-15:58-1m--2948.646116mNRFaizabad Rd, Uttar Pradesh
53|--|SGJSafdarGanj  16:34 16:24-16:35 16:25-1m--2968.521116mNRFaizabad Rd, Uttar Pradesh
54|--|BBKBarabanki Junction (4)X  17:17-17:18-1m12986.728124mNRPin-225001, Uttar Pradesh
55/==/LKOLucknow Charbagh NR (9)  18:20-18:35-15m521015.262124mNR226004, Uttar Pradesh
56/==/SANSandila (3)  19:22-19:24-2m--21063.768132mNRSandila, Uttar Pradesh
57/==/BLMBalamau Junction (4)  19:42-19:44-2m--21084.0124139mNRBalamau, Uttar Pradesh
58/==/HRIHardoi (5)XO  20:00-20:13-13m121117.177146mNRHardoi, Uttar Pradesh
59/==/AJIAnjhi ShahabadX  20:38-20:40-2m--21149.248148mNRAnjhi Shahabad, Uttar Pradesh
60/==/ROZARoza Junction (4)O  21:09-21:11 21:10-2 1m--21172.637156mNRShahjahanpur, Uttar Pradesh
61/==/SPNShahjahanpur Junction (5)  21:25 21:22-21:28 21:25-3m--21179.968156mNRShahjahanpur, Uttar Pradesh
62/==/TLHTilhar  21:43 21:41-21:45 21:42-2 1m--21198.172163mNRTilhar, Uttar Pradesh
63/==/PMRPitambarpur (3)XO  22:12 22:09-22:14 22:10-2 1m--21230.654171mNRPitambarpur, Uttar Pradesh
64/==/BEBareilly Junction (4)X  22:35 22:32-22:40 22:37-5m221250.470174mNRBareilly, Uttar Pradesh
65/==/NRSNagaria SadatX23:06 23:04-23:07 23:05-1m--21282.170177mNRNagaria Sadat, Uttar Pradesh
66/==/RMURampur Junction (3)X  23:33 23:32-23:38 23:33-5 1m--21313.535190mNRRampur, Uttar Pradesh
67/==/MBMoradabad Junction (7)X  00:20-00:30-10m231340.867201mNRMoradabad, Uttar Pradesh
68/==/SEOSeohara  01:11-01:13 01:12-2 1m--31386.755224mNRSeohara, Uttar Pradesh
69/==/DPRDhampurX  01:28 01:27-01:30 01:28-2 1m--31400.559236mNRDhampur, Uttar Pradesh
70/==/NGGNagina (3)XO  01:45-01:47-2m--31417.225247mNRNagina, Uttar Pradesh
71/==/NBDNajibabad Junction (3)XO  02:40-03:05-25m231439.763269mNRNajibabad, Uttar Pradesh
72/==/LRJLaksar Junction (4)  03:45-03:50-5m--31481.643238mNRLaksar, Uttarakhand
73%--%JWPJwalapur  04:13 04:22-04:15 04:23-2 1m--31504.620292mNRHaridwar, Uttarakhand
74%--%HWHaridwar Junction (9)  04:35-05:05 05:00-30 25m--31508.532294mNRHaridwar, Uttarakhand
75|--|RWLRaiwala Junction (2)X  05:21-05:23-2m131519.724361mNRRishikesh, Uttarakhand
76%--%DWODoiwalaX  06:15 06:14-06:17 06:15-2 1m--31540.417484mNRDehradun, Uttarakhand
77%--%DDNDehradun (4)  07:25--331560.2-648mNRDehradun, Uttarakhand
Scroll to Top
Scroll to Bottom